sensor_id;sensor_type;location;lat;lon;timestamp;pressure;altitude;pressure_sealevel;temperature;humidity
25664;BME280;13522;50.018;20.014;2022-09-14T00:02:25;98010.86;;;16.22;94.54
25664;BME280;13522;50.018;20.014;2022-09-14T00:08:39;98010.31;;;15.99;99.24
25664;BME280;13522;50.018;20.014;2022-09-14T00:11:53;98001.56;;;15.84;99.23
25664;BME280;13522;50.018;20.014;2022-09-14T00:15:07;97998.63;;;15.79;100.00
25664;BME280;13522;50.018;20.014;2022-09-14T00:18:30;97999.03;;;15.76;100.00
25664;BME280;13522;50.018;20.014;2022-09-14T00:24:48;98004.67;;;15.60;100.00
25664;BME280;13522;50.018;20.014;2022-09-14T00:28:04;98006.44;;;15.53;100.00
25664;BME280;13522;50.018;20.014;2022-09-14T00:31:17;98001.86;;;15.47;100.00
25664;BME280;13522;50.018;20.014;2022-09-14T00:34:30;98005.17;;;15.49;100.00
25664;BME280;13522;50.018;20.014;2022-09-14T00:37:43;98004.53;;;15.47;100.00
25664;BME280;13522;50.018;20.014;2022-09-14T00:40:59;97998.58;;;15.45;100.00
25664;BME280;13522;50.018;20.014;2022-09-14T00:48:08;97994.67;;;15.47;100.00
25664;BME280;13522;50.018;20.014;2022-09-14T00:51:20;97952.99;;;15.17;100.00
25664;BME280;13522;50.018;20.014;2022-09-14T00:54:32;97993.70;;;15.34;100.00
25664;BME280;13522;50.018;20.014;2022-09-14T00:57:47;97991.15;;;15.26;100.00
25664;BME280;13522;50.018;20.014;2022-09-14T01:01:00;97986.83;;;15.25;100.00
25664;BME280;13522;50.018;20.014;2022-09-14T01:10:35;97996.87;;;15.02;100.00
25664;BME280;13522;50.018;20.014;2022-09-14T01:14:09;97994.51;;;14.92;100.00
25664;BME280;13522;50.018;20.014;2022-09-14T01:17:28;97990.64;;;14.95;100.00
25664;BME280;13522;50.018;20.014;2022-09-14T01:20:47;97988.60;;;14.97;100.00
25664;BME280;13522;50.018;20.014;2022-09-14T01:24:05;97991.00;;;14.92;100.00
25664;BME280;13522;50.018;20.014;2022-09-14T01:27:27;97983.73;;;14.86;100.00
25664;BME280;13522;50.018;20.014;2022-09-14T01:30:46;97983.38;;;14.89;100.00
25664;BME280;13522;50.018;20.014;2022-09-14T01:37:04;97977.63;;;14.92;100.00
25664;BME280;13522;50.018;20.014;2022-09-14T01:43:25;97967.69;;;14.86;100.00
25664;BME280;13522;50.018;20.014;2022-09-14T01:46:45;97968.28;;;14.81;100.00
25664;BME280;13522;50.018;20.014;2022-09-14T01:50:09;97966.09;;;14.70;100.00
25664;BME280;13522;50.018;20.014;2022-09-14T01:53:28;97964.64;;;14.67;100.00
25664;BME280;13522;50.018;20.014;2022-09-14T01:56:48;97963.72;;;14.60;100.00
25664;BME280;13522;50.018;20.014;2022-09-14T02:00:03;97955.81;;;14.52;100.00
25664;BME280;13522;50.018;20.014;2022-09-14T02:03:21;97948.38;;;14.48;100.00
25664;BME280;13522;50.018;20.014;2022-09-14T02:06:36;97942.95;;;14.41;100.00
25664;BME280;13522;50.018;20.014;2022-09-14T02:09:51;97940.09;;;14.43;100.00
25664;BME280;13522;50.018;20.014;2022-09-14T02:13:05;97942.20;;;14.47;100.00
25664;BME280;13522;50.018;20.014;2022-09-14T02:16:18;97933.55;;;14.45;100.00
25664;BME280;13522;50.018;20.014;2022-09-14T02:19:36;97935.94;;;14.40;100.00
25664;BME280;13522;50.018;20.014;2022-09-14T02:22:50;97939.42;;;14.26;100.00
25664;BME280;13522;50.018;20.014;2022-09-14T02:26:02;97932.80;;;14.22;100.00
25664;BME280;13522;50.018;20.014;2022-09-14T02:29:15;97931.06;;;14.15;100.00
25664;BME280;13522;50.018;20.014;2022-09-14T02:32:32;97942.20;;;14.18;100.00
25664;BME280;13522;50.018;20.014;2022-09-14T02:35:54;97944.32;;;14.23;100.00
25664;BME280;13522;50.018;20.014;2022-09-14T02:39:13;97931.73;;;14.31;100.00
25664;BME280;13522;50.018;20.014;2022-09-14T02:42:32;97932.09;;;14.28;100.00
25664;BME280;13522;50.018;20.014;2022-09-14T02:45:50;97930.42;;;14.27;100.00
25664;BME280;13522;50.018;20.014;2022-09-14T02:49:06;97928.10;;;14.24;100.00
25664;BME280;13522;50.018;20.014;2022-09-14T02:52:26;97928.05;;;14.18;100.00
25664;BME280;13522;50.018;20.014;2022-09-14T02:55:45;97918.55;;;14.15;100.00
25664;BME280;13522;50.018;20.014;2022-09-14T02:58:57;97926.66;;;14.22;100.00
25664;BME280;13522;50.018;20.014;2022-09-14T03:02:09;97923.79;;;14.23;100.00
25664;BME280;13522;50.018;20.014;2022-09-14T03:05:22;97925.43;;;14.24;100.00
25664;BME280;13522;50.018;20.014;2022-09-14T03:08:34;97927.46;;;14.22;100.00
25664;BME280;13522;50.018;20.014;2022-09-14T03:11:46;97922.89;;;14.16;100.00
25664;BME280;13522;50.018;20.014;2022-09-14T03:15:07;97920.33;;;14.08;100.00
25664;BME280;13522;50.018;20.014;2022-09-14T03:18:19;97917.91;;;14.13;100.00
25664;BME280;13522;50.018;20.014;2022-09-14T03:21:31;97915.23;;;14.13;100.00
25664;BME280;13522;50.018;20.014;2022-09-14T03:24:42;97910.73;;;14.14;100.00
25664;BME280;13522;50.018;20.014;2022-09-14T03:28:08;97912.38;;;14.15;100.00
25664;BME280;13522;50.018;20.014;2022-09-14T03:40:21;97916.27;;;13.98;100.00
25664;BME280;13522;50.018;20.014;2022-09-14T03:43:39;97907.52;;;13.89;100.00
25664;BME280;13522;50.018;20.014;2022-09-14T03:46:54;97912.02;;;13.88;100.00
25664;BME280;13522;50.018;20.014;2022-09-14T04:02:20;97905.69;;;13.89;100.00
25664;BME280;13522;50.018;20.014;2022-09-14T04:06:02;97909.55;;;13.87;100.00
25664;BME280;13522;50.018;20.014;2022-09-14T04:09:16;97913.79;;;13.81;100.00
25664;BME280;13522;50.018;20.014;2022-09-14T04:12:34;97916.73;;;13.72;100.00
25664;BME280;13522;50.018;20.014;2022-09-14T04:15:59;97916.44;;;13.67;100.00
25664;BME280;13522;50.018;20.014;2022-09-14T04:19:16;97910.11;;;13.68;100.00
25664;BME280;13522;50.018;20.014;2022-09-14T04:22:29;97911.95;;;13.67;100.00
25664;BME280;13522;50.018;20.014;2022-09-14T04:25:43;97917.38;;;13.74;100.00
25664;BME280;13522;50.018;20.014;2022-09-14T04:28:57;97907.89;;;13.71;100.00
25664;BME280;13522;50.018;20.014;2022-09-14T04:32:22;97909.73;;;13.71;100.00
25664;BME280;13522;50.018;20.014;2022-09-14T04:35:46;97909.08;;;13.69;100.00
25664;BME280;13522;50.018;20.014;2022-09-14T04:39:28;97905.52;;;13.76;100.00
25664;BME280;13522;50.018;20.014;2022-09-14T04:43:26;97902.92;;;13.83;100.00
25664;BME280;13522;50.018;20.014;2022-09-14T04:46:37;97895.37;;;13.86;100.00
25664;BME280;13522;50.018;20.014;2022-09-14T04:49:51;97897.88;;;13.88;100.00
25664;BME280;13522;50.018;20.014;2022-09-14T04:53:03;97904.85;;;13.89;100.00
25664;BME280;13522;50.018;20.014;2022-09-14T04:56:15;97913.16;;;13.94;100.00
25664;BME280;13522;50.018;20.014;2022-09-14T04:59:28;97916.47;;;13.96;100.00
25664;BME280;13522;50.018;20.014;2022-09-14T05:02:42;97917.75;;;14.00;100.00
25664;BME280;13522;50.018;20.014;2022-09-14T05:05:54;97911.67;;;14.06;100.00
25664;BME280;13522;50.018;20.014;2022-09-14T05:09:10;97906.88;;;14.16;100.00
25664;BME280;13522;50.018;20.014;2022-09-14T05:12:23;97905.38;;;14.28;100.00
25664;BME280;13522;50.018;20.014;2022-09-14T05:15:37;97906.02;;;14.30;100.00
25664;BME280;13522;50.018;20.014;2022-09-14T05:18:58;97901.16;;;14.34;100.00
25664;BME280;13522;50.018;20.014;2022-09-14T05:22:11;97905.63;;;14.48;100.00
25664;BME280;13522;50.018;20.014;2022-09-14T05:25:23;97898.70;;;14.53;100.00
25664;BME280;13522;50.018;20.014;2022-09-14T05:28:37;97908.80;;;14.58;100.00
25664;BME280;13522;50.018;20.014;2022-09-14T05:31:49;97907.60;;;14.60;100.00
25664;BME280;13522;50.018;20.014;2022-09-14T05:35:01;97908.88;;;14.64;100.00
25664;BME280;13522;50.018;20.014;2022-09-14T05:38:20;97903.61;;;14.71;100.00
25664;BME280;13522;50.018;20.014;2022-09-14T05:41:34;97905.77;;;14.82;100.00
25664;BME280;13522;50.018;20.014;2022-09-14T05:44:46;97901.36;;;14.96;100.00
25664;BME280;13522;50.018;20.014;2022-09-14T05:48:00;97891.81;;;15.08;100.00
25664;BME280;13522;50.018;20.014;2022-09-14T05:51:15;97887.86;;;15.25;100.00
25664;BME280;13522;50.018;20.014;2022-09-14T05:54:29;97882.53;;;15.52;100.00
25664;BME280;13522;50.018;20.014;2022-09-14T05:57:43;97877.36;;;15.85;100.00
25664;BME280;13522;50.018;20.014;2022-09-14T06:01:00;97876.72;;;16.30;100.00
25664;BME280;13522;50.018;20.014;2022-09-14T06:04:27;97878.53;;;16.84;99.20
25664;BME280;13522;50.018;20.014;2022-09-14T06:07:39;97881.25;;;17.36;95.85
25664;BME280;13522;50.018;20.014;2022-09-14T06:10:51;97868.78;;;17.87;93.64
25664;BME280;13522;50.018;20.014;2022-09-14T06:14:04;97862.56;;;18.82;88.90
25664;BME280;13522;50.018;20.014;2022-09-14T06:17:45;97865.91;;;19.33;85.12
25664;BME280;13522;50.018;20.014;2022-09-14T06:28:35;97875.71;;;18.96;85.39
25664;BME280;13522;50.018;20.014;2022-09-14T06:32:15;97878.09;;;19.11;85.65
25664;BME280;13522;50.018;20.014;2022-09-14T06:35:57;97873.66;;;19.91;83.17
25664;BME280;13522;50.018;20.014;2022-09-14T06:39:58;97883.67;;;20.56;81.63
25664;BME280;13522;50.018;20.014;2022-09-14T06:43:10;97883.92;;;20.66;81.97
25664;BME280;13522;50.018;20.014;2022-09-14T06:46:23;97876.25;;;20.81;77.98
25664;BME280;13522;50.018;20.014;2022-09-14T06:49:36;97882.21;;;21.01;77.93
25664;BME280;13522;50.018;20.014;2022-09-14T06:52:48;97887.05;;;21.11;77.58
25664;BME280;13522;50.018;20.014;2022-09-14T06:56:00;97891.25;;;20.77;78.41
25664;BME280;13522;50.018;20.014;2022-09-14T06:59:15;97898.92;;;20.62;79.24
25664;BME280;13522;50.018;20.014;2022-09-14T07:02:28;97895.81;;;20.47;80.67
25664;BME280;13522;50.018;20.014;2022-09-14T07:05:39;97900.02;;;20.43;80.55
25664;BME280;13522;50.018;20.014;2022-09-14T07:08:52;97897.91;;;20.45;81.02
25664;BME280;13522;50.018;20.014;2022-09-14T07:12:05;97893.87;;;20.54;80.72
25664;BME280;13522;50.018;20.014;2022-09-14T07:15:17;97900.22;;;20.59;80.93
25664;BME280;13522;50.018;20.014;2022-09-14T07:18:36;97904.16;;;20.75;79.75
25664;BME280;13522;50.018;20.014;2022-09-14T07:21:48;97894.95;;;20.64;80.18
25664;BME280;13522;50.018;20.014;2022-09-14T07:25:00;97899.70;;;20.51;80.52
25664;BME280;13522;50.018;20.014;2022-09-14T07:28:12;97894.25;;;20.39;80.81
25664;BME280;13522;50.018;20.014;2022-09-14T07:31:26;97889.06;;;20.56;80.84
25664;BME280;13522;50.018;20.014;2022-09-14T07:34:47;97895.27;;;20.56;82.17
25664;BME280;13522;50.018;20.014;2022-09-14T07:38:00;97888.13;;;20.62;81.54
25664;BME280;13522;50.018;20.014;2022-09-14T07:41:11;97893.59;;;20.73;80.74
25664;BME280;13522;50.018;20.014;2022-09-14T07:44:24;97893.63;;;20.85;81.24
25664;BME280;13522;50.018;20.014;2022-09-14T07:47:36;97895.14;;;20.81;80.49
25664;BME280;13522;50.018;20.014;2022-09-14T07:50:50;97898.20;;;20.85;81.84
25664;BME280;13522;50.018;20.014;2022-09-14T07:54:11;97896.30;;;20.73;81.88
25664;BME280;13522;50.018;20.014;2022-09-14T07:57:25;97897.00;;;20.51;83.04
25664;BME280;13522;50.018;20.014;2022-09-14T08:00:39;97896.28;;;20.44;86.56
25664;BME280;13522;50.018;20.014;2022-09-14T08:03:51;97891.79;;;20.38;87.01
25664;BME280;13522;50.018;20.014;2022-09-14T08:07:06;97895.98;;;20.34;88.13
25664;BME280;13522;50.018;20.014;2022-09-14T08:10:17;97897.48;;;20.30;89.32
25664;BME280;13522;50.018;20.014;2022-09-14T08:13:30;97903.19;;;20.22;85.74
25664;BME280;13522;50.018;20.014;2022-09-14T08:16:43;97895.73;;;20.17;88.40
25664;BME280;13522;50.018;20.014;2022-09-14T08:19:55;97890.94;;;20.01;86.28
25664;BME280;13522;50.018;20.014;2022-09-14T08:23:06;97894.00;;;20.05;86.95
25664;BME280;13522;50.018;20.014;2022-09-14T08:26:19;97890.34;;;20.17;87.51
25664;BME280;13522;50.018;20.014;2022-09-14T08:29:32;97890.20;;;20.30;89.56
25664;BME280;13522;50.018;20.014;2022-09-14T08:32:45;97891.48;;;20.46;86.49
25664;BME280;13522;50.018;20.014;2022-09-14T08:35:57;97886.13;;;20.57;85.10
25664;BME280;13522;50.018;20.014;2022-09-14T08:39:12;97887.36;;;20.73;83.82
25664;BME280;13522;50.018;20.014;2022-09-14T08:42:24;97890.31;;;21.01;85.58
25664;BME280;13522;50.018;20.014;2022-09-14T08:45:36;97882.21;;;21.01;83.39
25664;BME280;13522;50.018;20.014;2022-09-14T08:48:50;97885.92;;;21.00;83.97
25664;BME280;13522;50.018;20.014;2022-09-14T08:52:03;97883.84;;;21.02;83.45
25664;BME280;13522;50.018;20.014;2022-09-14T08:55:24;97889.00;;;21.04;86.08
25664;BME280;13522;50.018;20.014;2022-09-14T08:58:47;97885.77;;;21.13;85.13
25664;BME280;13522;50.018;20.014;2022-09-14T09:02:15;97868.63;;;21.19;84.93
25664;BME280;13522;50.018;20.014;2022-09-14T09:05:36;97877.09;;;21.34;83.86
25664;BME280;13522;50.018;20.014;2022-09-14T09:08:55;97875.58;;;21.38;80.31
25664;BME280;13522;50.018;20.014;2022-09-14T09:12:13;97868.53;;;21.72;81.60
25664;BME280;13522;50.018;20.014;2022-09-14T09:15:30;97870.80;;;21.87;80.24
25664;BME280;13522;50.018;20.014;2022-09-14T09:18:45;97878.52;;;21.95;79.66
25664;BME280;13522;50.018;20.014;2022-09-14T09:22:00;97870.97;;;22.20;77.68
25664;BME280;13522;50.018;20.014;2022-09-14T09:25:18;97874.66;;;22.82;75.39
25664;BME280;13522;50.018;20.014;2022-09-14T09:28:32;97871.93;;;23.60;75.18
25664;BME280;13522;50.018;20.014;2022-09-14T09:31:49;97867.09;;;24.38;71.22
25664;BME280;13522;50.018;20.014;2022-09-14T09:35:16;97860.25;;;24.57;71.55
25664;BME280;13522;50.018;20.014;2022-09-14T09:38:44;97861.06;;;24.79;74.12
25664;BME280;13522;50.018;20.014;2022-09-14T09:41:59;97848.19;;;25.60;67.29
25664;BME280;13522;50.018;20.014;2022-09-14T09:45:12;97846.22;;;25.92;64.82
25664;BME280;13522;50.018;20.014;2022-09-14T09:48:27;97842.67;;;26.38;64.39
25664;BME280;13522;50.018;20.014;2022-09-14T09:51:45;97836.48;;;26.68;62.07
25664;BME280;13522;50.018;20.014;2022-09-14T09:54:58;97840.34;;;26.82;62.92
25664;BME280;13522;50.018;20.014;2022-09-14T09:58:28;97844.06;;;25.94;64.51
25664;BME280;13522;50.018;20.014;2022-09-14T10:01:42;97853.21;;;25.10;65.50
25664;BME280;13522;50.018;20.014;2022-09-14T10:05:00;97848.97;;;24.70;67.24
25664;BME280;13522;50.018;20.014;2022-09-14T10:08:16;97850.73;;;24.33;70.30
25664;BME280;13522;50.018;20.014;2022-09-14T10:11:34;97851.17;;;23.87;71.61
25664;BME280;13522;50.018;20.014;2022-09-14T10:14:47;97846.22;;;23.62;71.94
25664;BME280;13522;50.018;20.014;2022-09-14T10:18:07;97844.31;;;23.29;73.45
25664;BME280;13522;50.018;20.014;2022-09-14T10:21:24;97841.95;;;23.50;75.28
25664;BME280;13522;50.018;20.014;2022-09-14T10:24:38;97833.84;;;23.88;76.06
25664;BME280;13522;50.018;20.014;2022-09-14T10:27:58;97829.66;;;24.40;74.24
25664;BME280;13522;50.018;20.014;2022-09-14T10:31:14;97822.91;;;24.69;72.97
25664;BME280;13522;50.018;20.014;2022-09-14T10:34:30;97822.91;;;24.69;71.23
25664;BME280;13522;50.018;20.014;2022-09-14T10:37:51;97826.38;;;24.38;69.89
25664;BME280;13522;50.018;20.014;2022-09-14T10:41:19;97833.19;;;24.19;72.77
25664;BME280;13522;50.018;20.014;2022-09-14T10:44:44;97834.13;;;23.70;72.26
25664;BME280;13522;50.018;20.014;2022-09-14T10:48:43;97828.41;;;23.50;73.68
25664;BME280;13522;50.018;20.014;2022-09-14T10:52:11;97821.48;;;23.25;74.90
25664;BME280;13522;50.018;20.014;2022-09-14T10:55:31;97827.57;;;23.16;76.31
25664;BME280;13522;50.018;20.014;2022-09-14T10:59:01;97830.69;;;22.91;77.54
25664;BME280;13522;50.018;20.014;2022-09-14T11:02:48;97827.91;;;22.58;77.29
25664;BME280;13522;50.018;20.014;2022-09-14T11:06:20;97827.13;;;22.46;79.00
25664;BME280;13522;50.018;20.014;2022-09-14T11:09:38;97822.95;;;22.27;79.44
25664;BME280;13522;50.018;20.014;2022-09-14T11:13:05;97825.45;;;22.17;80.74
25664;BME280;13522;50.018;20.014;2022-09-14T11:16:34;97817.50;;;21.99;81.00
25664;BME280;13522;50.018;20.014;2022-09-14T11:19:58;97811.17;;;21.93;81.51
25664;BME280;13522;50.018;20.014;2022-09-14T11:23:24;97808.22;;;21.95;82.91
25664;BME280;13522;50.018;20.014;2022-09-14T11:26:42;97815.16;;;21.91;83.27
25664;BME280;13522;50.018;20.014;2022-09-14T11:29:58;97823.09;;;21.81;81.97
25664;BME280;13522;50.018;20.014;2022-09-14T11:33:17;97821.77;;;21.60;81.88
25664;BME280;13522;50.018;20.014;2022-09-14T11:36:36;97827.05;;;21.43;81.94
25664;BME280;13522;50.018;20.014;2022-09-14T11:39:55;97821.30;;;21.40;83.39
25664;BME280;13522;50.018;20.014;2022-09-14T11:43:12;97820.72;;;21.26;83.92
25664;BME280;13522;50.018;20.014;2022-09-14T11:46:30;97809.22;;;21.19;84.98
25664;BME280;13522;50.018;20.014;2022-09-14T11:49:52;97803.58;;;21.09;85.33
25664;BME280;13522;50.018;20.014;2022-09-14T11:53:12;97811.59;;;20.86;87.16
25664;BME280;13522;50.018;20.014;2022-09-14T11:56:27;97810.64;;;20.81;88.24
25664;BME280;13522;50.018;20.014;2022-09-14T11:59:52;97812.52;;;20.80;88.00
25664;BME280;13522;50.018;20.014;2022-09-14T12:03:17;97811.13;;;20.78;88.64
25664;BME280;13522;50.018;20.014;2022-09-14T12:06:45;97808.75;;;20.69;88.57
25664;BME280;13522;50.018;20.014;2022-09-14T12:10:19;97817.41;;;20.60;90.33
25664;BME280;13522;50.018;20.014;2022-09-14T12:13:31;97822.58;;;20.32;91.16
25664;BME280;13522;50.018;20.014;2022-09-14T12:17:12;97832.69;;;20.18;92.95
25664;BME280;13522;50.018;20.014;2022-09-14T12:20:48;97835.76;;;20.04;94.60
25664;BME280;13522;50.018;20.014;2022-09-14T12:24:06;97843.91;;;19.79;97.64
25664;BME280;13522;50.018;20.014;2022-09-14T12:27:24;97843.84;;;19.85;99.80
25664;BME280;13522;50.018;20.014;2022-09-14T12:31:09;97841.50;;;19.71;100.00
25664;BME280;13522;50.018;20.014;2022-09-14T12:34:25;97842.92;;;19.55;100.00
25664;BME280;13522;50.018;20.014;2022-09-14T12:37:39;97851.74;;;19.44;100.00
25664;BME280;13522;50.018;20.014;2022-09-14T12:40:50;97841.85;;;19.38;100.00
25664;BME280;13522;50.018;20.014;2022-09-14T12:44:14;97850.59;;;19.34;100.00
25664;BME280;13522;50.018;20.014;2022-09-14T12:47:58;97856.48;;;19.18;100.00
25664;BME280;13522;50.018;20.014;2022-09-14T12:51:11;97848.41;;;19.18;100.00
25664;BME280;13522;50.018;20.014;2022-09-14T12:54:34;97854.03;;;19.16;100.00
25664;BME280;13522;50.018;20.014;2022-09-14T12:58:00;97855.96;;;19.09;100.00
25664;BME280;13522;50.018;20.014;2022-09-14T13:01:24;97847.61;;;19.17;100.00
25664;BME280;13522;50.018;20.014;2022-09-14T13:04:41;97848.27;;;19.13;100.00
25664;BME280;13522;50.018;20.014;2022-09-14T13:07:54;97850.35;;;19.11;100.00
25664;BME280;13522;50.018;20.014;2022-09-14T13:11:07;97842.50;;;19.09;100.00
25664;BME280;13522;50.018;20.014;2022-09-14T13:14:21;97837.92;;;19.10;100.00
25664;BME280;13522;50.018;20.014;2022-09-14T13:17:35;97847.43;;;19.12;100.00
25664;BME280;13522;50.018;20.014;2022-09-14T13:20:53;97843.98;;;19.05;100.00
25664;BME280;13522;50.018;20.014;2022-09-14T13:24:20;97835.91;;;19.05;100.00
25664;BME280;13522;50.018;20.014;2022-09-14T13:27:37;97827.98;;;19.10;100.00
25664;BME280;13522;50.018;20.014;2022-09-14T13:30:56;97828.03;;;19.03;100.00
25664;BME280;13522;50.018;20.014;2022-09-14T13:34:16;97834.70;;;19.01;100.00
25664;BME280;13522;50.018;20.014;2022-09-14T13:37:30;97831.22;;;18.94;100.00
25664;BME280;13522;50.018;20.014;2022-09-14T13:40:42;97818.64;;;18.88;100.00
25664;BME280;13522;50.018;20.014;2022-09-14T13:43:56;97811.63;;;18.87;100.00
25664;BME280;13522;50.018;20.014;2022-09-14T13:47:12;97812.23;;;18.89;100.00
25664;BME280;13522;50.018;20.014;2022-09-14T13:50:28;97807.00;;;18.94;100.00
25664;BME280;13522;50.018;20.014;2022-09-14T13:53:43;97806.30;;;19.05;100.00
25664;BME280;13522;50.018;20.014;2022-09-14T13:57:14;97795.69;;;19.10;100.00
25664;BME280;13522;50.018;20.014;2022-09-14T14:00:27;97789.09;;;19.06;100.00
25664;BME280;13522;50.018;20.014;2022-09-14T14:03:45;97784.50;;;19.13;100.00
25664;BME280;13522;50.018;20.014;2022-09-14T14:07:04;97767.05;;;19.16;100.00
25664;BME280;13522;50.018;20.014;2022-09-14T14:10:29;97766.03;;;19.17;100.00
25664;BME280;13522;50.018;20.014;2022-09-14T14:13:42;97769.97;;;19.14;100.00
25664;BME280;13522;50.018;20.014;2022-09-14T14:17:29;97762.47;;;18.98;100.00
25664;BME280;13522;50.018;20.014;2022-09-14T14:20:44;97753.19;;;18.94;100.00
25664;BME280;13522;50.018;20.014;2022-09-14T14:24:17;97758.42;;;18.89;100.00
25664;BME280;13522;50.018;20.014;2022-09-14T14:27:39;97758.97;;;18.97;100.00
25664;BME280;13522;50.018;20.014;2022-09-14T14:30:50;97756.66;;;19.01;100.00
25664;BME280;13522;50.018;20.014;2022-09-14T14:34:11;97763.06;;;19.00;100.00
25664;BME280;13522;50.018;20.014;2022-09-14T14:37:30;97769.42;;;19.05;100.00
25664;BME280;13522;50.018;20.014;2022-09-14T14:40:43;97765.61;;;18.95;100.00
25664;BME280;13522;50.018;20.014;2022-09-14T14:43:56;97759.67;;;18.86;100.00
25664;BME280;13522;50.018;20.014;2022-09-14T14:47:10;97753.36;;;18.74;100.00
25664;BME280;13522;50.018;20.014;2022-09-14T14:50:25;97751.77;;;18.67;100.00
25664;BME280;13522;50.018;20.014;2022-09-14T14:53:38;97745.94;;;18.70;100.00
25664;BME280;13522;50.018;20.014;2022-09-14T14:56:51;97734.30;;;18.76;100.00
25664;BME280;13522;50.018;20.014;2022-09-14T15:00:06;97734.75;;;18.73;100.00
25664;BME280;13522;50.018;20.014;2022-09-14T15:03:23;97742.72;;;18.61;100.00
25664;BME280;13522;50.018;20.014;2022-09-14T15:06:36;97747.27;;;18.61;100.00
25664;BME280;13522;50.018;20.014;2022-09-14T15:09:50;97752.48;;;18.56;100.00
25664;BME280;13522;50.018;20.014;2022-09-14T15:13:03;97752.16;;;18.39;100.00
25664;BME280;13522;50.018;20.014;2022-09-14T15:16:16;97746.77;;;18.46;100.00
25664;BME280;13522;50.018;20.014;2022-09-14T15:19:28;97736.31;;;18.25;100.00
25664;BME280;13522;50.018;20.014;2022-09-14T15:22:40;97739.23;;;18.23;100.00
25664;BME280;13522;50.018;20.014;2022-09-14T15:25:52;97752.89;;;18.22;100.00
25664;BME280;13522;50.018;20.014;2022-09-14T15:29:05;97740.06;;;18.24;100.00
25664;BME280;13522;50.018;20.014;2022-09-14T15:32:18;97752.28;;;18.19;100.00
25664;BME280;13522;50.018;20.014;2022-09-14T15:35:30;97749.82;;;18.18;100.00
25664;BME280;13522;50.018;20.014;2022-09-14T15:38:43;97749.82;;;18.18;100.00
25664;BME280;13522;50.018;20.014;2022-09-14T15:41:56;97735.83;;;18.03;100.00
25664;BME280;13522;50.018;20.014;2022-09-14T15:45:09;97746.17;;;18.06;100.00
25664;BME280;13522;50.018;20.014;2022-09-14T15:48:21;97745.11;;;18.07;100.00
25664;BME280;13522;50.018;20.014;2022-09-14T15:51:33;97746.36;;;18.04;100.00
25664;BME280;13522;50.018;20.014;2022-09-14T15:54:46;97738.49;;;18.09;100.00
25664;BME280;13522;50.018;20.014;2022-09-14T15:57:59;97731.64;;;18.13;100.00
25664;BME280;13522;50.018;20.014;2022-09-14T16:01:12;97731.20;;;18.16;100.00
25664;BME280;13522;50.018;20.014;2022-09-14T16:04:25;97727.48;;;18.17;100.00
25664;BME280;13522;50.018;20.014;2022-09-14T16:07:37;97721.66;;;18.20;100.00
25664;BME280;13522;50.018;20.014;2022-09-14T16:10:56;97724.77;;;18.24;100.00
25664;BME280;13522;50.018;20.014;2022-09-14T16:14:10;97723.94;;;18.24;100.00
25664;BME280;13522;50.018;20.014;2022-09-14T16:17:33;97723.94;;;18.24;100.00
25664;BME280;13522;50.018;20.014;2022-09-14T16:20:46;97716.89;;;18.23;100.00
25664;BME280;13522;50.018;20.014;2022-09-14T16:24:26;97721.66;;;18.20;100.00
25664;BME280;13522;50.018;20.014;2022-09-14T16:27:38;97720.64;;;18.22;100.00
25664;BME280;13522;50.018;20.014;2022-09-14T16:30:50;97719.39;;;18.24;100.00
25664;BME280;13522;50.018;20.014;2022-09-14T16:34:04;97718.56;;;18.24;100.00
25664;BME280;13522;50.018;20.014;2022-09-14T16:37:19;97723.14;;;18.16;100.00
25664;BME280;13522;50.018;20.014;2022-09-14T16:40:31;97722.78;;;18.06;100.00
25664;BME280;13522;50.018;20.014;2022-09-14T16:43:45;97727.99;;;18.01;100.00
25664;BME280;13522;50.018;20.014;2022-09-14T16:46:58;97713.95;;;17.99;100.00
25664;BME280;13522;50.018;20.014;2022-09-14T16:50:10;97709.69;;;17.85;100.00
25664;BME280;13522;50.018;20.014;2022-09-14T16:53:22;97714.65;;;17.88;100.00
25664;BME280;13522;50.018;20.014;2022-09-14T16:56:36;97713.45;;;17.78;100.00
25664;BME280;13522;50.018;20.014;2022-09-14T16:59:48;97706.64;;;17.75;100.00
25664;BME280;13522;50.018;20.014;2022-09-14T17:03:00;97710.52;;;17.86;100.00
25664;BME280;13522;50.018;20.014;2022-09-14T17:06:13;97705.53;;;17.89;100.00
25664;BME280;13522;50.018;20.014;2022-09-14T17:09:28;97713.45;;;17.78;100.00
25664;BME280;13522;50.018;20.014;2022-09-14T17:12:42;97707.33;;;17.64;100.00
25664;BME280;13522;50.018;20.014;2022-09-14T17:16:00;97707.73;;;17.61;100.00
25664;BME280;13522;50.018;20.014;2022-09-14T17:19:13;97718.90;;;17.65;100.00
25664;BME280;13522;50.018;20.014;2022-09-14T17:22:26;97715.38;;;17.64;100.00
25664;BME280;13522;50.018;20.014;2022-09-14T17:25:38;97718.48;;;17.61;100.00
25664;BME280;13522;50.018;20.014;2022-09-14T17:28:53;97715.99;;;17.66;100.00
25664;BME280;13522;50.018;20.014;2022-09-14T17:32:07;97717.63;;;17.67;100.00
25664;BME280;13522;50.018;20.014;2022-09-14T17:35:19;97722.22;;;17.60;100.00
25664;BME280;13522;50.018;20.014;2022-09-14T17:38:33;97715.01;;;17.54;100.00
25664;BME280;13522;50.018;20.014;2022-09-14T17:41:46;97706.33;;;17.59;100.00
25664;BME280;13522;50.018;20.014;2022-09-14T17:44:58;97706.34;;;17.52;100.00
25664;BME280;13522;50.018;20.014;2022-09-14T17:48:11;97707.36;;;17.51;100.00
25664;BME280;13522;50.018;20.014;2022-09-14T17:51:24;97703.88;;;17.51;100.00
25664;BME280;13522;50.018;20.014;2022-09-14T17:54:39;97706.94;;;17.61;100.00